Time;durP1;ratioP1;P1;durP2;ratioP2;P2;SDS_P1;SDS_P2;PMS_P1;PMS_P2;Temp;Humidity;BMP_temperature;BMP_pressure;BME280_temperature;BME280_humidity;BME280_pressure;Samples;Min_cycle;Max_cycle;Signal;HPM_P1;HPM_P2
2022/09/06 00:00:12;;;;;;;4.03;1.70;;;;;;;20.24;42.88;102257.98;1559926;91;21088;-55
2022/09/06 00:02:39;;;;;;;5.92;1.40;;;;;;;20.22;43.00;102260.28;1560324;91;21052;-55
2022/09/06 00:05:07;;;;;;;2.65;1.50;;;;;;;20.21;43.10;102258.56;1576646;90;21128;-54
2022/09/06 00:07:34;;;;;;;4.85;1.35;;;;;;;20.20;43.40;102251.55;1590892;90;21054;-52
2022/09/06 00:10:01;;;;;;;1.47;1.12;;;;;;;20.19;43.55;102249.80;1591256;90;21117;-55
2022/09/06 00:12:29;;;;;;;1.75;1.10;;;;;;;20.18;43.61;102246.74;1590654;90;21100;-55
2022/09/06 00:14:56;;;;;;;1.40;1.27;;;;;;;20.17;43.50;102242.39;1591017;90;21072;-53
2022/09/06 00:17:23;;;;;;;1.50;1.10;;;;;;;20.17;43.60;102239.27;1616363;87;21081;-57
2022/09/06 00:19:49;;;;;;;3.52;1.40;;;;;;;20.18;43.79;102242.78;1642640;87;21541;-58
2022/09/06 00:22:16;;;;;;;1.42;1.32;;;;;;;20.18;43.86;102238.36;1641836;87;21060;-53
2022/09/06 00:24:43;;;;;;;2.08;1.40;;;;;;;20.21;43.83;102240.06;1632704;87;21057;-55
2022/09/06 00:27:09;;;;;;;5.33;1.42;;;;;;;20.22;43.73;102236.48;1639386;87;21013;-53
2022/09/06 00:29:36;;;;;;;1.17;1.00;;;;;;;20.23;43.69;102238.23;1639652;87;21084;-53
2022/09/06 00:32:03;;;;;;;3.50;1.10;;;;;;;20.24;43.66;102239.94;1639459;87;21061;-56
2022/09/06 00:34:30;;;;;;;1.12;1.00;;;;;;;20.26;43.70;102238.09;1640117;87;21062;-53
2022/09/06 00:36:57;;;;;;;2.02;1.30;;;;;;;20.28;43.75;102236.25;1641977;87;21486;-53
2022/09/06 00:39:23;;;;;;;1.98;1.30;;;;;;;20.28;43.90;102238.89;1639031;87;21038;-55
2022/09/06 00:41:51;;;;;;;2.80;1.30;;;;;;;20.28;44.23;102236.25;1676901;84;21087;-53
2022/09/06 00:44:18;;;;;;;4.47;1.65;;;;;;;20.28;44.34;102237.57;1697812;84;21576;-55
2022/09/06 00:46:46;;;;;;;1.80;1.45;;;;;;;20.28;44.42;102235.41;1696196;84;21024;-58
2022/09/06 00:49:30;;;;;;;2.83;1.20;;;;;;;20.28;44.51;102233.61;1697235;84;21016;-56
2022/09/06 00:52:02;;;;;;;2.67;1.30;;;;;;;20.28;44.53;102238.44;1696332;83;21515;-55
2022/09/06 00:54:29;;;;;;;1.47;1.30;;;;;;;20.32;44.90;102234.38;1691113;83;21612;-53
2022/09/06 00:56:56;;;;;;;2.22;1.30;;;;;;;20.31;45.38;102225.58;1675747;84;21051;-52
2022/09/06 00:59:25;;;;;;;2.58;1.22;;;;;;;20.33;45.78;102231.66;1699435;84;21041;-55
2022/09/06 01:01:52;;;;;;;1.90;1.30;;;;;;;20.37;45.91;102232.39;1691287;84;21026;-53
2022/09/06 01:04:18;;;;;;;2.65;1.12;;;;;;;20.39;45.99;102224.81;1703030;83;21571;-53
2022/09/06 01:07:25;;;;;;;1.62;1.40;;;;;;;20.43;46.01;102230.37;1721216;83;21065;-53
2022/09/06 01:10:00;;;;;;;2.17;1.40;;;;;;;20.49;45.99;102231.91;1721397;83;21022;-52
2022/09/06 01:12:51;;;;;;;1.60;1.27;;;;;;;20.52;45.91;102230.03;1721168;83;21033;-56
2022/09/06 01:15:32;;;;;;;1.82;1.15;;;;;;;20.55;45.70;102227.24;1712467;83;21053;-55
2022/09/06 01:18:24;;;;;;;2.92;1.32;;;;;;;20.57;45.63;102225.85;1628845;87;21073;-52
2022/09/06 01:21:29;;;;;;;1.70;1.30;;;;;;;20.58;45.46;102225.81;1608812;87;21077;-58
2022/09/06 01:24:29;;;;;;;2.35;1.32;;;;;;;20.58;45.23;102227.59;1614193;88;21058;-60
2022/09/06 01:27:25;;;;;;;1.35;1.15;;;;;;;20.56;45.04;102225.02;1605771;89;21568;-54
2022/09/06 01:30:05;;;;;;;1.42;1.07;;;;;;;20.55;45.03;102231.21;1614083;87;21601;-57
2022/09/06 01:32:58;;;;;;;1.92;1.17;;;;;;;20.52;45.01;102228.70;1614045;89;21153;-58
2022/09/06 01:35:36;;;;;;;2.35;1.35;;;;;;;20.51;45.02;102227.42;1614113;89;21073;-53
2022/09/06 01:38:04;;;;;;;2.55;1.50;;;;;;;20.50;45.04;102220.42;1613836;89;21053;-55
2022/09/06 01:40:35;;;;;;;1.87;1.70;;;;;;;20.48;45.04;102217.85;1614203;89;21559;-54
2022/09/06 01:42:59;;;;;;;3.25;1.30;;;;;;;20.47;45.17;102220.53;1610572;88;21110;-58
2022/09/06 01:46:08;;;;;;;3.27;1.47;;;;;;;20.45;45.25;102221.92;1592904;89;21100;-54
2022/09/06 01:49:04;;;;;;;2.35;1.45;;;;;;;20.43;45.34;102221.13;1604944;89;21093;-57
2022/09/06 01:51:58;;;;;;;2.58;1.47;;;;;;;20.45;45.34;102228.53;1571917;91;21567;-53
2022/09/06 01:54:42;;;;;;;1.98;1.47;;;;;;;20.45;45.43;102227.66;1569400;91;21128;-56
2022/09/06 01:57:23;;;;;;;1.62;1.40;;;;;;;20.46;45.44;102226.76;1549386;90;21616;-52
2022/09/06 02:00:09;;;;;;;1.87;1.50;;;;;;;20.46;45.57;102226.31;1591358;90;21077;-53
2022/09/06 02:03:01;;;;;;;2.98;1.60;;;;;;;20.47;45.64;102228.47;1561246;92;21178;-56
2022/09/06 02:05:42;;;;;;;2.90;1.45;;;;;;;20.46;45.71;102226.31;1525500;93;21117;-54
2022/09/06 02:08:15;;;;;;;4.60;1.70;;;;;;;20.45;45.80;102223.24;1521877;93;21128;-55
2022/09/06 02:10:55;;;;;;;2.62;1.77;;;;;;;20.45;45.85;102217.95;1521970;93;21064;-53
2022/09/06 02:13:24;;;;;;;2.87;1.85;;;;;;;20.45;45.81;102223.70;1516855;93;21133;-54
2022/09/06 02:16:01;;;;;;;6.28;2.30;;;;;;;20.43;45.78;102219.80;1544789;91;21069;-54
2022/09/06 02:18:45;;;;;;;4.08;2.17;;;;;;;20.42;45.81;102220.74;1507822;93;21139;-53
2022/09/06 02:21:14;;;;;;;6.87;2.52;;;;;;;20.39;45.81;102219.52;1505778;93;21125;-54
2022/09/06 02:23:41;;;;;;;6.83;2.87;;;;;;;20.38;45.82;102219.11;1506182;93;21049;-52
2022/09/06 02:26:15;;;;;;;5.05;2.90;;;;;;;20.38;45.89;102221.75;1505780;93;21118;-56
2022/09/06 02:28:41;;;;;;;7.53;3.05;;;;;;;20.37;45.91;102218.72;1512607;93;21109;-53
2022/09/06 02:31:17;;;;;;;5.65;3.33;;;;;;;20.37;45.95;102219.17;1522967;93;21123;-54
2022/09/06 02:33:44;;;;;;;3.37;2.20;;;;;;;20.38;46.03;102216.95;1445742;98;21188;-53
2022/09/06 02:36:11;;;;;;;3.77;2.77;;;;;;;20.39;46.02;102212.91;1446690;98;21127;-54
2022/09/06 02:38:39;;;;;;;3.40;2.12;;;;;;;20.39;45.96;102208.95;1446569;98;21161;-55
2022/09/06 02:41:07;;;;;;;4.67;2.37;;;;;;;20.41;45.98;102203.59;1444246;98;21113;-52
2022/09/06 02:43:34;;;;;;;5.33;2.65;;;;;;;20.39;45.93;102206.30;1481852;95;21142;-55
2022/09/06 02:46:02;;;;;;;3.52;2.40;;;;;;;20.38;45.94;102211.17;1492530;95;21122;-54
2022/09/06 02:48:29;;;;;;;3.27;2.20;;;;;;;20.36;46.01;102210.38;1493210;95;21179;-52
2022/09/06 02:50:56;;;;;;;3.65;2.60;;;;;;;20.34;46.06;102209.58;1487596;95;21096;-54
2022/09/06 02:53:22;;;;;;;4.90;2.80;;;;;;;20.32;46.16;102210.09;1482927;96;21141;-55
2022/09/06 02:55:49;;;;;;;3.37;2.90;;;;;;;20.30;46.26;102209.78;1482558;96;21119;-57
2022/09/06 02:58:16;;;;;;;6.25;2.60;;;;;;;20.27;46.41;102210.75;1482468;96;21633;-54
2022/09/06 03:00:43;;;;;;;3.95;2.22;;;;;;;20.24;46.56;102213.05;1482363;96;21131;-57
2022/09/06 03:03:10;;;;;;;5.08;3.25;;;;;;;20.24;46.55;102213.50;1483263;96;21584;-53
2022/09/06 03:05:37;;;;;;;3.95;2.37;;;;;;;20.23;46.54;102213.12;1502813;93;21745;-54
2022/09/06 03:08:04;;;;;;;4.37;2.00;;;;;;;20.22;46.56;102215.34;1505901;93;21127;-55
2022/09/06 03:10:31;;;;;;;4.12;2.12;;;;;;;20.21;46.60;102208.35;1505050;95;21123;-53
2022/09/06 03:12:59;;;;;;;5.53;2.08;;;;;;;20.21;46.55;102217.60;1504135;95;21056;-53
2022/09/06 03:15:26;;;;;;;3.62;2.22;;;;;;;20.20;46.58;102227.75;1505148;95;21520;-54
2022/09/06 03:17:58;;;;;;;3.80;2.00;;;;;;;20.19;46.65;102224.70;1505949;93;21077;-55
2022/09/06 03:20:25;;;;;;;4.85;2.10;;;;;;;20.16;46.70;102224.80;1506092;95;21574;-52
2022/09/06 03:22:52;;;;;;;4.70;2.00;;;;;;;20.14;46.70;102230.60;1527375;93;21085;-52
2022/09/06 03:25:19;;;;;;;2.90;1.95;;;;;;;20.07;46.93;102234.41;1529295;93;21196;-52
2022/09/06 03:27:46;;;;;;;4.05;2.15;;;;;;;19.98;47.13;102231.66;1528985;93;21081;-53
2022/09/06 03:30:12;;;;;;;3.62;2.27;;;;;;;19.93;47.35;102229.63;1595563;83;21034;-55
2022/09/06 03:32:40;;;;;;;3.33;1.90;;;;;;;19.88;47.48;102226.31;1720791;83;21061;-53
2022/09/06 03:35:08;;;;;;;5.00;2.30;;;;;;;19.84;47.75;102231.76;1720550;83;21054;-52
2022/09/06 03:37:35;;;;;;;4.33;2.40;;;;;;;19.75;48.11;102230.31;1719615;83;21085;-52
2022/09/06 03:40:05;;;;;;;8.00;3.62;;;;;;;19.72;48.46;102230.89;1720769;83;21058;-53
2022/09/06 03:42:31;;;;;;;6.15;3.15;;;;;;;19.69;48.76;102221.73;1720803;83;21046;-55
2022/09/06 03:44:58;;;;;;;5.70;3.15;;;;;;;19.70;48.88;102228.77;1720306;83;21061;-53
2022/09/06 03:47:25;;;;;;;4.58;3.85;;;;;;;19.70;48.20;102218.20;1720857;83;21116;-57
2022/09/06 03:49:52;;;;;;;8.78;4.20;;;;;;;19.71;47.14;102225.19;1720508;83;21010;-52
2022/09/06 03:52:18;;;;;;;5.17;3.87;;;;;;;19.73;46.38;102233.91;1720697;83;21104;-62
2022/09/06 03:54:45;;;;;;;5.62;4.47;;;;;;;19.76;45.82;102231.18;1720407;83;21054;-52
2022/09/06 03:57:12;;;;;;;5.97;4.60;;;;;;;19.80;45.83;102238.07;1720781;83;21049;-54
2022/09/06 03:59:39;;;;;;;4.67;3.72;;;;;;;19.83;45.48;102237.94;1720596;83;21029;-53
2022/09/06 04:02:06;;;;;;;6.92;4.40;;;;;;;19.86;45.37;102243.13;1720608;83;21538;-55
2022/09/06 04:04:33;;;;;;;6.33;4.12;;;;;;;19.89;45.30;102251.80;1720728;83;21065;-57
2022/09/06 04:07:00;;;;;;;6.97;4.83;;;;;;;19.92;45.20;102253.47;1721007;83;21099;-56
2022/09/06 04:09:26;;;;;;;5.05;3.85;;;;;;;19.94;45.22;102247.67;1721369;83;21085;-52
2022/09/06 04:11:53;;;;;;;5.22;4.37;;;;;;;19.95;45.21;102250.70;1721369;83;21061;-55
2022/09/06 04:14:20;;;;;;;5.15;4.37;;;;;;;19.98;45.18;102255.88;1721252;83;21032;-54
2022/09/06 04:16:47;;;;;;;6.12;4.83;;;;;;;19.97;45.15;102259.45;1721395;83;21038;-58
2022/09/06 04:19:14;;;;;;;5.15;4.65;;;;;;;19.97;45.04;102263.42;1721206;82;21077;-52
2022/09/06 04:21:41;;;;;;;7.08;4.67;;;;;;;20.00;44.96;102263.30;1721124;83;21035;-54
2022/09/06 04:24:09;;;;;;;6.00;4.60;;;;;;;20.00;44.71;102261.97;1721008;83;21053;-55
2022/09/06 04:26:36;;;;;;;6.58;5.00;;;;;;;20.00;44.44;102267.25;1721112;83;21077;-58
2022/09/06 04:29:03;;;;;;;8.33;4.95;;;;;;;20.01;44.67;102266.35;1721397;83;21041;-55
2022/09/06 04:31:30;;;;;;;5.55;4.75;;;;;;;20.03;44.73;102269.80;1721132;83;21073;-59
2022/09/06 04:33:57;;;;;;;6.67;4.90;;;;;;;20.03;44.66;102272.45;1721213;83;21695;-53
2022/09/06 04:36:23;;;;;;;6.20;5.05;;;;;;;20.03;44.66;102278.56;1721157;83;21105;-55
2022/09/06 04:38:51;;;;;;;7.25;5.22;;;;;;;20.04;44.81;102274.15;1721402;83;21089;-60
2022/09/06 04:41:18;;;;;;;6.40;5.12;;;;;;;20.05;45.04;102274.09;1721455;83;21572;-54
2022/09/06 04:43:45;;;;;;;9.35;4.97;;;;;;;20.06;45.11;102272.31;1721276;83;21073;-53
2022/09/06 04:46:24;;;;;;;9.20;5.42;;;;;;;20.07;44.84;102276.70;1709156;83;21486;-53
2022/09/06 04:48:51;;;;;;;7.33;4.62;;;;;;;20.07;44.83;102285.45;1718561;83;21041;-54
2022/09/06 04:51:18;;;;;;;6.10;5.10;;;;;;;20.11;44.59;102283.59;1719292;83;21002;-54
2022/09/06 04:53:45;;;;;;;8.35;5.42;;;;;;;20.10;44.15;102274.79;1721038;82;21569;-54
2022/09/06 04:56:18;;;;;;;6.28;4.75;;;;;;;20.11;44.11;102280.95;1721095;83;21042;-54
2022/09/06 04:58:45;;;;;;;6.92;4.50;;;;;;;20.12;43.68;102282.66;1715454;83;21025;-54
2022/09/06 05:01:12;;;;;;;13.68;5.00;;;;;;;20.12;43.84;102281.33;1721413;83;20994;-55
2022/09/06 05:03:38;;;;;;;5.62;4.65;;;;;;;20.13;43.59;102278.63;1721138;83;21573;-53
2022/09/06 05:06:15;;;;;;;6.72;5.15;;;;;;;20.16;43.89;102278.98;1717956;83;21121;-54
2022/09/06 05:08:41;;;;;;;5.75;4.67;;;;;;;20.17;43.75;102280.72;1710947;84;21066;-56
2022/09/06 05:11:09;;;;;;;6.45;5.35;;;;;;;20.19;44.01;102282.84;1713725;83;21565;-55
2022/09/06 05:13:38;;;;;;;7.80;5.05;;;;;;;20.22;44.18;102282.30;1713776;83;21077;-55
2022/09/06 05:16:06;;;;;;;8.88;5.47;;;;;;;20.25;43.74;102284.84;1713382;84;21090;-53
2022/09/06 05:18:33;;;;;;;7.25;5.03;;;;;;;20.28;43.59;102285.64;1713753;84;21010;-56
2022/09/06 05:21:00;;;;;;;7.55;5.47;;;;;;;20.29;43.49;102288.22;1713432;83;21034;-54
2022/09/06 05:23:27;;;;;;;7.17;5.33;;;;;;;20.28;43.35;102283.38;1713282;84;21018;-53
2022/09/06 05:25:55;;;;;;;6.12;5.22;;;;;;;20.30;43.46;102290.41;1713400;84;21085;-52
2022/09/06 05:28:21;;;;;;;8.38;5.10;;;;;;;20.31;43.62;102289.02;1713571;83;21514;-53
2022/09/06 05:30:48;;;;;;;7.75;5.05;;;;;;;20.32;43.75;102287.24;1713688;84;21069;-53
2022/09/06 05:33:20;;;;;;;6.78;5.55;;;;;;;20.32;43.93;102289.41;1713352;84;21022;-53
2022/09/06 05:35:47;;;;;;;7.00;5.45;;;;;;;20.35;43.75;102287.98;1684560;85;21003;-53
2022/09/06 05:38:14;;;;;;;6.62;5.08;;;;;;;20.37;43.78;102284.81;1684184;85;21016;-54
2022/09/06 05:40:41;;;;;;;6.87;5.78;;;;;;;20.40;43.65;102286.04;1684214;84;21133;-53
2022/09/06 05:43:09;;;;;;;5.95;5.12;;;;;;;20.44;43.61;102290.29;1684326;85;21027;-57
2022/09/06 05:45:36;;;;;;;9.03;5.53;;;;;;;20.47;43.58;102284.86;1683405;85;21484;-53
2022/09/06 05:48:03;;;;;;;7.35;5.60;;;;;;;20.50;43.46;102279.47;1684331;85;21066;-55
2022/09/06 05:50:31;;;;;;;9.08;5.50;;;;;;;20.54;43.53;102281.08;1684328;85;21085;-53
2022/09/06 05:52:57;;;;;;;8.00;5.78;;;;;;;20.61;43.57;102274.61;1684186;85;21505;-57
2022/09/06 05:55:24;;;;;;;5.90;5.30;;;;;;;20.67;43.34;102277.00;1684662;85;21632;-54
2022/09/06 05:57:51;;;;;;;7.83;5.47;;;;;;;20.74;43.37;102269.23;1684347;85;21048;-52
2022/09/06 06:00:18;;;;;;;8.63;5.72;;;;;;;20.83;42.88;102281.25;1684093;85;21634;-57
2022/09/06 06:02:48;;;;;;;7.72;5.53;;;;;;;20.90;42.63;102280.05;1684078;85;21040;-56
2022/09/06 06:05:15;;;;;;;9.47;5.73;;;;;;;20.98;42.42;102277.50;1684343;85;21575;-55
2022/09/06 06:07:43;;;;;;;8.18;5.37;;;;;;;21.13;42.32;102277.83;1683985;85;21151;-54
2022/09/06 06:10:10;;;;;;;9.20;6.08;;;;;;;21.33;42.13;102272.58;1683925;85;21091;-56
2022/09/06 06:12:38;;;;;;;7.17;6.03;;;;;;;21.46;41.90;102273.76;1684127;85;21066;-56
2022/09/06 06:15:07;;;;;;;7.78;5.90;;;;;;;21.58;41.71;102279.85;1684250;85;21026;-54
2022/09/06 06:17:33;;;;;;;7.97;6.50;;;;;;;21.69;41.58;102280.25;1681808;85;21063;-57
2022/09/06 06:20:00;;;;;;;6.85;6.12;;;;;;;21.82;41.33;102281.48;1684458;85;21097;-53
2022/09/06 06:22:27;;;;;;;11.25;6.37;;;;;;;21.91;41.18;102282.38;1684377;85;21512;-55
2022/09/06 06:24:54;;;;;;;9.50;6.62;;;;;;;21.97;41.09;102275.48;1684405;85;21508;-53
2022/09/06 06:27:20;;;;;;;8.58;6.17;;;;;;;22.05;41.18;102279.96;1683939;85;21048;-54
2022/09/06 06:29:47;;;;;;;7.80;6.87;;;;;;;22.14;41.29;102278.23;1684055;85;21000;-55
2022/09/06 06:32:14;;;;;;;7.83;6.12;;;;;;;22.24;41.23;102283.96;1695264;84;21085;-53
2022/09/06 06:34:41;;;;;;;10.85;6.25;;;;;;;22.31;41.28;102283.63;1713279;84;21506;-61
2022/09/06 06:37:08;;;;;;;7.40;6.53;;;;;;;22.38;41.51;102283.72;1713660;84;21102;-55
2022/09/06 06:39:35;;;;;;;7.80;6.45;;;;;;;22.44;41.43;102285.25;1713360;84;21030;-54
2022/09/06 06:42:03;;;;;;;7.87;6.40;;;;;;;22.46;41.33;102286.88;1713333;83;21538;-56
2022/09/06 06:44:31;;;;;;;8.78;6.58;;;;;;;22.48;41.18;102287.66;1689619;85;21022;-60
2022/09/06 06:47:00;;;;;;;10.23;6.55;;;;;;;22.51;41.22;102284.88;1653921;87;21136;-56
2022/09/06 06:49:27;;;;;;;13.22;6.25;;;;;;;22.52;41.36;102285.74;1654093;87;21117;-53
2022/09/06 06:51:54;;;;;;;9.65;6.47;;;;;;;22.55;41.60;102286.45;1653629;87;21486;-54
2022/09/06 06:54:20;;;;;;;8.18;5.97;;;;;;;22.58;41.75;102286.35;1642161;86;21111;-53
2022/09/06 06:56:47;;;;;;;7.70;6.28;;;;;;;22.62;42.16;102281.75;1642474;86;21552;-55
2022/09/06 06:59:14;;;;;;;10.38;6.75;;;;;;;22.65;42.58;102285.11;1642121;87;21085;-55
2022/09/06 07:01:40;;;;;;;10.82;6.25;;;;;;;22.69;42.55;102288.47;1642217;87;21102;-54
2022/09/06 07:04:09;;;;;;;7.33;6.37;;;;;;;22.76;43.06;102289.04;1642133;86;21065;-55
2022/09/06 07:06:52;;;;;;;7.00;5.35;;;;;;;22.82;43.24;102287.41;1642043;86;21128;-54
2022/09/06 07:09:19;;;;;;;6.67;6.05;;;;;;;22.90;43.20;102290.55;1623208;87;21062;-53
2022/09/06 07:11:47;;;;;;;8.58;6.33;;;;;;;22.98;42.89;102296.38;1624848;87;21077;-53
2022/09/06 07:14:17;;;;;;;7.17;5.12;;;;;;;23.03;42.47;102295.66;1624890;87;21005;-53
2022/09/06 07:16:44;;;;;;;7.22;5.00;;;;;;;23.08;42.88;102291.00;1592757;88;21584;-56
2022/09/06 07:19:11;;;;;;;6.92;5.80;;;;;;;23.16;43.14;102296.79;1592788;88;21561;-53
2022/09/06 07:21:38;;;;;;;7.00;6.10;;;;;;;23.25;42.43;102293.66;1592690;88;21116;-55
2022/09/06 07:24:08;;;;;;;6.47;5.85;;;;;;;;;;1592899;88;21587;-54
2022/09/06 07:26:37;;;;;;;7.85;5.70;;;;;;;23.48;41.88;102296.05;1639891;87;21141;-54
2022/09/06 07:29:04;;;;;;;6.80;5.42;;;;;;;23.62;41.57;102296.20;1642265;86;21049;-53
2022/09/06 07:31:32;;;;;;;7.37;5.80;;;;;;;23.79;41.20;102294.86;1642274;86;21045;-53
2022/09/06 07:33:59;;;;;;;8.20;5.78;;;;;;;23.90;40.86;102295.63;1642377;87;21557;-53
2022/09/06 07:36:26;;;;;;;6.72;5.72;;;;;;;23.96;40.66;102298.83;1642336;86;21084;-55
2022/09/06 07:38:53;;;;;;;6.95;5.85;;;;;;;24.00;40.75;102307.03;1642044;86;21515;-54
2022/09/06 07:41:20;;;;;;;6.62;5.95;;;;;;;24.02;40.65;102302.95;1641960;86;21021;-53
2022/09/06 07:43:47;;;;;;;7.97;5.95;;;;;;;24.01;40.70;102294.10;1642162;86;21104;-54
2022/09/06 07:46:16;;;;;;;8.10;6.12;;;;;;;24.01;40.67;102296.77;1637012;87;21085;-60
2022/09/06 07:48:44;;;;;;;6.12;5.47;;;;;;;23.99;40.78;102299.98;1657022;86;21723;-54
2022/09/06 07:51:17;;;;;;;6.55;4.70;;;;;;;23.99;41.06;102298.64;1660196;86;21066;-59
2022/09/06 07:53:50;;;;;;;5.70;5.10;;;;;;;24.00;41.28;102303.04;1587292;90;21141;-57
2022/09/06 07:56:18;;;;;;;5.55;4.87;;;;;;;24.03;41.80;102300.23;1587717;90;21125;-54
2022/09/06 07:58:44;;;;;;;5.67;5.03;;;;;;;24.06;42.12;102304.07;1587286;89;21093;-55
2022/09/06 08:01:37;;;;;;;8.45;4.87;;;;;;;24.07;42.18;102301.78;1587388;89;21126;-54
2022/09/06 08:04:07;;;;;;;5.17;4.25;;;;;;;24.09;42.07;102302.56;1587250;90;21545;-61
2022/09/06 08:06:37;;;;;;;8.17;5.10;;;;;;;24.13;41.56;102300.63;1580156;90;21080;-55
2022/09/06 08:09:06;;;;;;;5.85;5.00;;;;;;;24.14;41.31;102297.87;1564039;91;21045;-55
2022/09/06 08:11:33;;;;;;;6.67;5.70;;;;;;;24.20;41.18;102303.31;1564065;92;21608;-55
2022/09/06 08:14:04;;;;;;;4.60;4.20;;;;;;;24.21;41.31;102297.91;1595667;89;21813;-54
2022/09/06 08:16:32;;;;;;;5.70;5.20;;;;;;;24.27;41.33;102301.19;1615730;89;21509;-60
2022/09/06 08:19:01;;;;;;;6.90;4.78;;;;;;;24.32;41.58;102304.47;1615534;89;21202;-53
2022/09/06 08:21:30;;;;;;;5.75;4.90;;;;;;;24.36;41.58;102302.87;1615491;89;21056;-56
2022/09/06 08:24:03;;;;;;;7.55;4.72;;;;;;;24.42;41.52;102297.70;1615785;89;20985;-56
2022/09/06 08:26:31;;;;;;;8.23;4.83;;;;;;;24.48;41.59;102293.37;1615326;88;21114;-53
2022/09/06 08:29:01;;;;;;;7.03;4.83;;;;;;;24.54;41.41;102293.02;1615427;89;21109;-56
2022/09/06 08:31:29;;;;;;;6.85;4.78;;;;;;;24.60;41.05;102301.53;1595610;89;21066;-58
2022/09/06 08:33:58;;;;;;;5.22;4.72;;;;;;;24.67;40.43;102290.05;1595702;90;21068;-55
2022/09/06 08:36:31;;;;;;;5.47;4.85;;;;;;;24.73;40.31;102289.27;1595980;90;21076;-55
2022/09/06 08:38:59;;;;;;;5.58;5.00;;;;;;;24.80;40.37;102284.45;1595542;90;21140;-58
2022/09/06 08:41:52;;;;;;;6.22;4.70;;;;;;;24.86;40.31;102282.77;1595664;90;21583;-53
2022/09/06 08:44:31;;;;;;;6.62;5.08;;;;;;;24.92;39.65;102278.42;1499235;94;21629;-55
2022/09/06 08:47:04;;;;;;;4.72;4.25;;;;;;;24.97;39.40;102284.36;1517542;93;21115;-54
2022/09/06 08:49:35;;;;;;;5.78;4.72;;;;;;;25.06;39.46;102281.14;1448282;99;21650;-54
2022/09/06 08:52:23;;;;;;;7.60;5.33;;;;;;;25.06;39.46;102281.14;1481754;96;21116;-58
2022/09/06 08:55:16;;;;;;;8.23;5.50;;;;;;;25.11;39.48;102275.55;1483490;96;21639;-54
2022/09/06 08:58:13;;;;;;;7.95;4.92;;;;;;;25.20;39.75;102270.57;1480431;96;21632;-54
2022/09/06 09:00:41;;;;;;;8.95;5.10;;;;;;;25.20;39.75;102270.57;1504371;95;21604;-54
2022/09/06 09:03:13;;;;;;;5.92;5.17;;;;;;;25.28;39.65;102270.97;1504538;95;21128;-56
2022/09/06 09:05:40;;;;;;;5.72;4.50;;;;;;;25.34;39.45;102263.08;1502947;95;21080;-55
2022/09/06 09:08:22;;;;;;;4.62;4.22;;;;;;;25.48;39.61;102261.80;1485140;95;21079;-59
2022/09/06 09:10:55;;;;;;;;;;;;;;;25.48;39.61;102261.80;1467551;97;21099;-56
2022/09/06 09:13:30;;;;;;;5.25;4.58;;;;;;;25.54;39.49;102258.30;1470207;96;20451;-54
2022/09/06 09:15:58;;;;;;;5.28;4.30;;;;;;;25.63;39.26;102256.42;1463400;97;21092;-55
2022/09/06 09:18:27;;;;;;;5.67;4.58;;;;;;;25.63;39.26;102256.42;1464731;97;21141;-57
2022/09/06 09:20:54;;;;;;;8.65;4.65;;;;;;;25.68;38.74;102255.65;1464501;97;21144;-62
2022/09/06 09:23:21;;;;;;;6.50;4.03;;;;;;;25.71;38.54;102244.81;1471727;97;21107;-55
2022/09/06 09:25:47;;;;;;;5.92;4.87;;;;;;;25.76;38.78;102253.87;1469637;97;21048;-56
2022/09/06 09:28:17;;;;;;;6.70;5.00;;;;;;;25.79;38.28;102253.20;1465273;96;21140;-60
2022/09/06 09:30:53;;;;;;;6.85;4.50;;;;;;;25.84;37.67;102253.75;1456380;98;21568;-56
2022/09/06 09:33:35;;;;;;;7.58;4.70;;;;;;;25.90;38.03;102250.34;1486088;96;21081;-54
2022/09/06 09:36:04;;;;;;;;;;;;;;;25.95;37.78;102250.89;1449424;98;21119;-55
2022/09/06 09:38:43;;;;;;;6.05;4.67;;;;;;;25.99;37.25;102244.44;1447897;98;20134;-54
2022/09/06 09:41:10;;;;;;;5.72;4.33;;;;;;;26.03;36.98;102249.46;1469949;97;21167;-53
2022/09/06 09:43:39;;;;;;;5.58;4.17;;;;;;;26.07;37.10;102244.81;1447788;98;21132;-55
2022/09/06 09:46:16;;;;;;;4.83;4.17;;;;;;;26.11;36.56;102246.37;1431102;98;21130;-58
2022/09/06 09:49:04;;;;;;;5.00;3.75;;;;;;;26.15;36.35;102251.39;1482659;95;21121;-58
2022/09/06 09:51:35;;;;;;;5.47;4.15;;;;;;;26.18;35.60;102243.67;1500115;95;21178;-61
2022/09/06 09:54:07;;;;;;;5.12;3.67;;;;;;;26.18;35.40;102247.67;1541786;92;21064;-53
2022/09/06 09:56:54;;;;;;;6.33;4.35;;;;;;;26.19;35.58;102244.94;1567321;88;21600;-56
2022/09/06 09:59:30;;;;;;;4.67;4.25;;;;;;;26.20;35.55;102246.63;1591178;89;21576;-55
2022/09/06 10:02:01;;;;;;;8.93;4.33;;;;;;;26.21;35.02;102241.69;1591125;90;21094;-55
2022/09/06 10:04:34;;;;;;;6.70;4.13;;;;;;;26.23;35.26;102241.58;1575925;91;21072;-56
2022/09/06 10:07:17;;;;;;;5.97;4.20;;;;;;;26.28;35.26;102251.47;1586912;87;21143;-54
2022/09/06 10:10:00;;;;;;;5.97;4.25;;;;;;;26.31;35.01;102249.95;1630507;88;21025;-53
2022/09/06 10:12:37;;;;;;;7.85;4.58;;;;;;;26.35;34.78;102249.67;1639930;87;21111;-56
2022/09/06 10:15:09;;;;;;;3.75;3.45;;;;;;;26.39;34.99;102253.85;1628049;87;21134;-59
2022/09/06 10:17:50;;;;;;;5.33;3.62;;;;;;;26.41;34.94;102244.41;1632863;86;21104;-56
2022/09/06 10:20:17;;;;;;;3.75;3.35;;;;;;;26.45;35.40;102249.92;1635818;87;21051;-53
2022/09/06 10:23:05;;;;;;;4.15;3.70;;;;;;;26.50;35.49;102253.16;1631800;87;21053;-56
2022/09/06 10:25:44;;;;;;;4.60;3.87;;;;;;;26.55;35.44;102252.37;1637314;87;21044;-54
2022/09/06 10:31:18;;;;;;;4.58;3.75;;;;;;;26.65;34.91;102250.81;1533967;91;21064;-55
2022/09/06 10:34:20;;;;;;;4.03;3.67;;;;;;;26.63;35.01;102255.39;1501136;94;21122;-56
2022/09/06 10:36:52;;;;;;;4.17;3.72;;;;;;;26.58;35.20;102250.34;1470423;96;21185;-53
2022/09/06 10:39:36;;;;;;;3.80;3.50;;;;;;;26.57;35.34;102239.78;1473154;97;21100;-54
2022/09/06 10:42:18;;;;;;;3.85;3.33;;;;;;;26.58;35.50;102241.51;1473175;97;21176;-54
2022/09/06 10:45:12;;;;;;;4.72;3.65;;;;;;;26.59;35.19;102240.53;1503330;94;21655;-56
2022/09/06 10:48:19;;;;;;;4.80;3.65;;;;;;;26.57;35.17;102239.78;1508263;94;21087;-53
2022/09/06 10:50:54;;;;;;;4.05;3.62;;;;;;;26.57;35.43;102237.11;1530152;92;21586;-54
2022/09/06 10:53:50;;;;;;;5.08;3.70;;;;;;;26.58;35.41;102238.84;1531313;93;21116;-53
2022/09/06 10:56:28;;;;;;;4.20;3.02;;;;;;;26.61;35.12;102236.81;1532083;93;21073;-56
2022/09/06 10:59:13;;;;;;;4.87;3.02;;;;;;;26.61;35.26;102234.61;1464718;96;21058;-58
2022/09/06 11:01:54;;;;;;;3.35;2.92;;;;;;;26.62;35.33;102232.34;1465379;97;21138;-55
2022/09/06 11:04:34;;;;;;;5.45;3.33;;;;;;;26.64;35.16;102230.42;1460273;98;21083;-59
2022/09/06 11:07:19;;;;;;;4.67;3.30;;;;;;;26.68;35.22;102229.27;1437429;98;21208;-54
2022/09/06 11:09:50;;;;;;;5.33;3.08;;;;;;;26.72;35.44;102228.61;1412939;99;21644;-54
2022/09/06 11:12:41;;;;;;;4.75;3.17;;;;;;;26.73;35.47;102227.16;1398703;102;21154;-56
2022/09/06 11:15:12;;;;;;;6.37;3.60;;;;;;;26.72;35.33;102226.80;1403932;102;21131;-54
2022/09/06 11:17:48;;;;;;;3.30;3.00;;;;;;;26.67;35.37;102222.70;1395989;102;21122;-58
2022/09/06 11:20:46;;;;;;;4.62;3.20;;;;;;;26.64;35.80;102217.07;1405327;102;21125;-57
2022/09/06 11:23:48;;;;;;;3.15;2.85;;;;;;;26.65;35.81;102216.09;1393503;102;21161;-55
2022/09/06 11:26:29;;;;;;;3.85;3.22;;;;;;;26.68;35.55;102215.91;1398292;102;21728;-53
2022/09/06 11:28:59;;;;;;;3.60;3.20;;;;;;;26.72;35.67;102215.25;1390714;101;21141;-55
2022/09/06 11:31:28;;;;;;;4.87;3.47;;;;;;;26.76;35.50;102214.09;1363763;104;21158;-54
2022/09/06 11:34:09;;;;;;;4.87;3.12;;;;;;;26.79;35.63;102216.06;1348317;105;21164;-56
2022/09/06 11:36:56;;;;;;;3.40;3.10;;;;;;;26.83;35.58;102209.56;1379712;103;21138;-57
2022/09/06 11:39:36;;;;;;;4.35;3.42;;;;;;;26.90;35.65;102208.68;1376387;103;21144;-57
2022/09/06 11:42:08;;;;;;;6.87;3.20;;;;;;;26.95;35.35;102206.09;1324048;107;21185;-57
2022/09/06 11:44:55;;;;;;;;;;;;;;;26.96;35.21;102201.11;1307652;109;21249;-59
2022/09/06 11:47:40;;;;;;;6.03;3.27;;;;;;;26.97;35.25;102196.64;1301500;109;20197;-59
2022/09/06 11:50:26;;;;;;;4.45;3.17;;;;;;;26.96;34.74;102199.78;1298604;109;21439;-61
2022/09/06 11:53:16;;;;;;;4.08;3.05;;;;;;;26.94;34.93;102199.03;1303271;109;21810;-55